Ayvalik, Turkey

7:34 AM EEST on August 02, 2014 (GMT +0300)
Odysseas Elytis (LGMT) Elev 16 ft | 39.05 °N, 26.60 °E | Change Station

Current weather conditions updated 14 minutes ago

Scattered Clouds
Scattered Clouds
77 °F
Feels Like 77 °F
N
5
Wind Variable Wind from WNW

Today is forecast to be Cooler than yesterday. Morning showers and thunderstorms.

Today
High -- | Low -- °F
--% Chance of Precip.
Yesterday
High -- | Low -- °F
Precip. -- in
6:13 AM 8:24 PM
Waxing Crescent, 32% visible
Pressure 29.68 in
Visibility 6.2 miles
Clouds Few 2500 ft
Scattered Clouds 8000 ft
Dew Point 66 °F
Humidity 69%
Rainfall 0.00 in
Snow Depth Not available.
UV 0 out of 12
Pollen Not available.
Air Quality Not available.
Flu Activity Not available.
METAR LGMT 020420Z 30004KT 9999 FEW025 SCT080 25/19 Q1005

More Conditions Fewer Conditions

Pressure 29.68 in
Visibility 6.2 miles
Clouds Few 2500 ft
Scattered Clouds 8000 ft
Dew Point 66 °F
Humidity 69%
Rainfall 0.00 in
Snow Depth Not available.
UV 0 out of 12
Pollen Not available.
Air Quality Not available.
Flu Activity Not available.
METAR LGMT 020420Z 30004KT 9999 FEW025 SCT080 25/19 Q1005

More Conditions Fewer Conditions

10-Day Weather Forecast

Almanac

Astronomy

Aug. 02, 2014 Rise Set
Actual Time 6:13 AM EEST 8:24 PM EEST
Civil Twilight 5:44 AM EEST 8:54 PM EEST
Nautical Twilight 5:07 AM EEST 9:30 PM EEST
Astronomical Twilight 4:27 AM EEST 10:10 PM EEST
Moon 12:14 PM EEST 11:34 PM EEST
Length of Visible Light 15h 10m
Length of Day
14h 10m
Tomorrow will be 1m 59s shorter.
Waxing Crescent, 32% of the Moon is Illuminated
Today
Waxing Crescent
Aug 3
First Quarter
Aug 10
Full
Aug 17
Last Quarter
Aug 25
New

Yesterday's Extremes

Country Highs Country Lows

Community

WunderPhotos

Upload Photos

1,739,820 photos uploaded!

Nearby

Snow Depth

Not available.

Earthquake Activity

City Distance Mag. Time & Date
No recent earthquake activity has been reported nearby.
Minimum magnitude displayed is 2.5.

Coastal Water Temperatures

Place Temperature
No Stations Reporting

Nearby Weather Stations

There are no personal weather stations in this area.